createdAt,value
2023-05-17T00:01:56.506Z,25.07
2023-05-17T00:04:46.208Z,25.09
2023-05-17T00:07:36.390Z,25.06
2023-05-17T00:10:25.114Z,25.01
2023-05-17T00:13:14.144Z,25.02
2023-05-17T00:16:02.774Z,24.99
2023-05-17T00:18:51.583Z,25.05
2023-05-17T00:21:40.642Z,25.02
2023-05-17T00:24:31.978Z,24.99
2023-05-17T00:27:20.667Z,25.05
2023-05-17T00:30:11.433Z,25.01
2023-05-17T00:33:00.162Z,25.02
2023-05-17T00:35:49.121Z,24.97
2023-05-17T00:38:37.771Z,24.96
2023-05-17T00:41:28.945Z,24.91
2023-05-17T00:44:17.666Z,24.89
2023-05-17T00:47:06.627Z,24.89
2023-05-17T00:49:57.941Z,24.95
2023-05-17T00:52:47.503Z,24.94
2023-05-17T00:55:36.374Z,24.92
2023-05-17T00:58:26.788Z,24.92
2023-05-17T01:01:15.679Z,24.87
2023-05-17T01:04:04.615Z,24.87
2023-05-17T01:06:53.695Z,24.87
2023-05-17T01:09:43.203Z,24.89
2023-05-17T01:12:47.717Z,24.86
2023-05-17T01:15:44.610Z,24.90
2023-05-17T01:18:40.594Z,24.91
2023-05-17T01:21:42.483Z,24.95
2023-05-17T01:24:45.764Z,24.95
2023-05-17T01:27:40.358Z,24.93
2023-05-17T01:30:31.056Z,24.95
2023-05-17T01:33:21.073Z,24.86
2023-05-17T01:36:10.851Z,24.83
2023-05-17T01:39:00.539Z,24.91
2023-05-17T01:41:56.927Z,24.89
2023-05-17T01:44:52.182Z,24.85
2023-05-17T01:47:47.508Z,24.85
2023-05-17T01:50:37.460Z,24.89
2023-05-17T01:53:32.098Z,24.81
2023-05-17T01:56:23.470Z,24.77
2023-05-17T01:59:16.479Z,24.79
2023-05-17T02:02:09.141Z,24.80
2023-05-17T02:04:58.489Z,24.87
2023-05-17T02:07:47.445Z,24.89
2023-05-17T02:10:36.127Z,24.79
2023-05-17T02:13:24.787Z,24.80
2023-05-17T02:16:13.423Z,24.87
2023-05-17T02:19:03.505Z,24.82
2023-05-17T02:21:52.141Z,24.81
2023-05-17T02:24:40.767Z,24.87
2023-05-17T02:27:29.429Z,24.93
2023-05-17T02:30:18.503Z,24.88
2023-05-17T02:33:07.307Z,24.84
2023-05-17T02:35:57.379Z,24.85
2023-05-17T02:38:45.924Z,24.76
2023-05-17T02:41:34.546Z,24.77
2023-05-17T02:44:23.177Z,24.71
2023-05-17T02:47:12.172Z,24.64
2023-05-17T02:50:01.137Z,24.64
2023-05-17T02:52:51.179Z,24.64
2023-05-17T02:55:39.881Z,24.57
2023-05-17T02:58:28.513Z,24.62
2023-05-17T03:01:17.265Z,24.64
2023-05-17T03:04:06.266Z,24.62
2023-05-17T03:06:55.689Z,24.54
2023-05-17T03:09:45.944Z,24.61
2023-05-17T03:12:34.582Z,24.55
2023-05-17T03:15:23.402Z,24.58
2023-05-17T03:18:12.321Z,24.53
2023-05-17T03:21:01.053Z,24.55
2023-05-17T03:23:49.710Z,24.56
2023-05-17T03:26:39.769Z,24.57
2023-05-17T03:29:28.513Z,24.57
2023-05-17T03:32:17.180Z,24.59
2023-05-17T03:35:06.893Z,24.53
2023-05-17T03:37:55.535Z,24.55
2023-05-17T03:40:44.148Z,24.59
2023-05-17T03:43:34.282Z,24.59
2023-05-17T03:46:22.945Z,24.61
2023-05-17T03:49:12.665Z,24.61
2023-05-17T03:52:01.317Z,24.63
2023-05-17T03:54:49.956Z,24.67
2023-05-17T03:57:38.699Z,24.65
2023-05-17T04:00:28.763Z,24.64
2023-05-17T04:03:20.171Z,24.53
2023-05-17T04:06:09.189Z,24.54
2023-05-17T04:08:59.604Z,24.56
2023-05-17T04:11:48.284Z,24.71
2023-05-17T04:14:37.148Z,24.90
2023-05-17T04:17:27.409Z,24.81
2023-05-17T04:20:16.137Z,24.90
2023-05-17T04:23:04.824Z,24.94
2023-05-17T04:25:53.798Z,24.94
2023-05-17T04:28:42.442Z,24.93
2023-05-17T04:31:33.730Z,24.95
2023-05-17T04:34:25.136Z,24.90
2023-05-17T04:37:14.024Z,24.85
2023-05-17T04:40:02.699Z,24.81
2023-05-17T04:42:52.108Z,24.75
2023-05-17T04:45:41.150Z,24.85
2023-05-17T04:48:33.628Z,24.80
2023-05-17T04:51:23.756Z,24.90
2023-05-17T04:54:12.439Z,24.94
2023-05-17T04:57:01.078Z,24.75
2023-05-17T04:59:49.743Z,24.86
2023-05-17T05:02:39.037Z,24.90
2023-05-17T05:05:28.116Z,24.94
2023-05-17T05:08:18.380Z,24.91
2023-05-17T05:11:07.127Z,24.79
2023-05-17T05:13:55.871Z,24.75
2023-05-17T05:16:44.532Z,24.68
2023-05-17T05:19:33.269Z,24.69
2023-05-17T05:22:21.952Z,24.70
2023-05-17T05:25:12.674Z,24.67
2023-05-17T05:28:01.348Z,24.65
2023-05-17T05:30:49.980Z,24.62
2023-05-17T05:33:38.761Z,24.56
2023-05-17T05:36:27.553Z,24.55
2023-05-17T05:39:16.287Z,24.53
2023-05-17T05:42:09.608Z,24.53
2023-05-17T05:44:58.308Z,24.56
2023-05-17T05:47:47.243Z,24.53
2023-05-17T05:50:36.220Z,24.50
2023-05-17T05:53:24.921Z,24.48
2023-05-17T05:56:13.749Z,24.44
2023-05-17T05:59:03.792Z,24.51
2023-05-17T06:01:52.536Z,24.50
2023-05-17T06:04:45.579Z,24.49
2023-05-17T06:07:35.072Z,24.49
2023-05-17T06:10:24.455Z,24.42
2023-05-17T06:13:13.271Z,24.52
2023-05-17T06:16:03.632Z,24.45
2023-05-17T06:18:52.476Z,24.42
2023-05-17T06:21:41.241Z,24.44
2023-05-17T06:24:30.931Z,24.43
2023-05-17T06:27:19.666Z,24.45
2023-05-17T06:30:09.523Z,24.44
2023-05-17T06:32:59.692Z,24.46
2023-05-17T06:38:43.641Z,24.49
2023-05-17T06:41:34.957Z,24.48
2023-05-17T06:44:23.699Z,24.49
2023-05-17T06:47:12.452Z,24.51
2023-05-17T06:50:02.550Z,24.50
2023-05-17T06:52:51.343Z,24.48
2023-05-17T06:55:40.360Z,24.48
2023-05-17T06:58:29.159Z,24.51
2023-05-17T07:01:18.793Z,24.62
2023-05-17T07:04:07.540Z,24.47
2023-05-17T07:06:57.692Z,24.54
2023-05-17T07:09:46.737Z,24.40
2023-05-17T07:12:43.649Z,24.38
2023-05-17T07:15:32.445Z,24.41
2023-05-17T07:18:21.261Z,24.40
2023-05-17T07:21:10.009Z,24.40
2023-05-17T07:24:00.463Z,24.36
2023-05-17T07:26:52.085Z,24.38
2023-05-17T07:29:42.297Z,24.36
2023-05-17T07:32:31.114Z,24.36
2023-05-17T07:35:21.941Z,24.34
2023-05-17T07:38:11.624Z,24.36
2023-05-17T07:41:01.711Z,24.38
2023-05-17T07:43:50.473Z,24.36
2023-05-17T07:46:41.675Z,24.36
2023-05-17T07:49:34.749Z,24.34
2023-05-17T07:52:23.532Z,24.31
2023-05-17T07:55:12.745Z,24.29
2023-05-17T07:58:03.806Z,24.33
2023-05-17T08:00:53.718Z,24.31
2023-05-17T08:03:48.071Z,24.33
2023-05-17T08:06:38.045Z,24.29
2023-05-17T08:09:26.785Z,24.24
2023-05-17T08:12:15.409Z,24.24
2023-05-17T08:15:06.028Z,24.24
2023-05-17T08:17:54.928Z,24.23
2023-05-17T08:20:43.757Z,24.21
2023-05-17T08:23:32.584Z,24.22
2023-05-17T08:26:22.954Z,24.23
2023-05-17T08:29:12.016Z,24.20
2023-05-17T08:32:02.046Z,24.21
2023-05-17T08:34:50.931Z,24.20
2023-05-17T08:37:39.711Z,24.20
2023-05-17T08:40:30.009Z,24.22
2023-05-17T08:43:19.909Z,24.19
2023-05-17T08:46:09.525Z,24.15
2023-05-17T08:49:02.188Z,24.15
2023-05-17T08:51:52.571Z,24.14
2023-05-17T08:54:43.777Z,24.11
2023-05-17T08:57:33.680Z,24.06
2023-05-17T09:00:26.063Z,24.05
2023-05-17T09:03:19.702Z,24.02
2023-05-17T09:06:11.243Z,24.06
2023-05-17T09:09:01.567Z,24.10
2023-05-17T09:11:50.363Z,24.11
2023-05-17T09:14:39.038Z,24.11
2023-05-17T09:17:28.908Z,24.10
2023-05-17T09:20:33.972Z,24.11
2023-05-17T09:23:27.903Z,24.12
2023-05-17T09:26:18.035Z,24.18
2023-05-17T09:29:11.141Z,24.18
2023-05-17T09:32:14.357Z,24.16
2023-05-17T09:35:03.138Z,24.12
2023-05-17T09:37:51.839Z,24.12
2023-05-17T09:40:43.014Z,24.08
2023-05-17T09:43:32.279Z,24.10
2023-05-17T09:46:21.723Z,24.11
2023-05-17T09:49:10.692Z,24.10
2023-05-17T09:51:59.533Z,24.05
2023-05-17T09:54:55.442Z,24.05
2023-05-17T09:57:47.063Z,24.02
2023-05-17T10:00:35.890Z,24.01
2023-05-17T10:03:24.582Z,24.02
2023-05-17T10:06:27.772Z,23.99
2023-05-17T10:09:24.515Z,23.98
2023-05-17T10:12:16.225Z,23.98
2023-05-17T10:15:08.014Z,24.01
2023-05-17T10:17:57.353Z,24.01
2023-05-17T10:20:46.170Z,24.00
2023-05-17T10:23:36.013Z,23.96
2023-05-17T10:26:25.190Z,23.98
2023-05-17T10:29:14.008Z,24.00
2023-05-17T10:32:07.520Z,23.97
2023-05-17T10:35:09.345Z,23.94
2023-05-17T10:37:58.713Z,23.93
2023-05-17T10:40:48.565Z,23.94
2023-05-17T10:43:39.971Z,23.94
2023-05-17T10:46:32.620Z,23.96
2023-05-17T10:49:24.695Z,23.95
2023-05-17T10:52:14.384Z,23.93
2023-05-17T10:55:03.795Z,23.93
2023-05-17T10:58:10.799Z,23.91
2023-05-17T11:00:59.976Z,23.91
2023-05-17T11:03:50.226Z,23.92
2023-05-17T11:06:42.354Z,23.96
2023-05-17T11:09:34.018Z,23.97
2023-05-17T11:12:42.068Z,23.93
2023-05-17T11:15:35.316Z,23.95
2023-05-17T11:18:31.071Z,23.93
2023-05-17T11:21:22.416Z,23.88
2023-05-17T11:24:17.581Z,23.91
2023-05-17T11:27:07.814Z,23.91
2023-05-17T11:29:56.661Z,23.86
2023-05-17T11:32:49.288Z,23.85
2023-05-17T11:35:40.270Z,23.91
2023-05-17T11:38:32.546Z,23.89
2023-05-17T11:41:27.098Z,23.87
2023-05-17T11:44:17.111Z,23.84
2023-05-17T11:47:08.797Z,23.84
2023-05-17T11:50:02.057Z,23.86
2023-05-17T11:52:54.229Z,23.83
2023-05-17T11:55:44.380Z,23.81
2023-05-17T11:58:36.853Z,23.85
2023-05-17T12:01:25.564Z,23.83
2023-05-17T12:04:17.167Z,23.85
2023-05-17T12:07:06.326Z,23.88
2023-05-17T12:09:55.058Z,23.83
2023-05-17T12:12:44.297Z,23.85
2023-05-17T12:15:34.704Z,23.84
2023-05-17T12:18:23.368Z,23.86
2023-05-17T12:21:15.249Z,23.89
2023-05-17T12:24:04.030Z,23.93
2023-05-17T12:26:53.919Z,23.97
2023-05-17T12:29:42.537Z,24.02
2023-05-17T12:32:32.774Z,24.04
2023-05-17T12:35:21.597Z,23.99
2023-05-17T12:38:11.654Z,24.02
2023-05-17T12:41:02.228Z,24.09
2023-05-17T12:43:54.938Z,23.99
2023-05-17T12:46:53.574Z,24.09
2023-05-17T12:49:54.156Z,24.08
2023-05-17T12:52:43.019Z,24.09
2023-05-17T12:55:38.364Z,24.11
2023-05-17T12:58:27.170Z,24.14
2023-05-17T13:01:15.931Z,24.18
2023-05-17T13:04:07.948Z,23.95
2023-05-17T13:07:00.429Z,23.91
2023-05-17T13:09:50.098Z,23.76
2023-05-17T13:12:40.316Z,23.62
2023-05-17T13:15:33.241Z,23.60
2023-05-17T13:18:25.036Z,23.59
2023-05-17T13:21:13.889Z,23.48
2023-05-17T13:24:03.962Z,23.46
2023-05-17T13:26:52.699Z,23.30
2023-05-17T13:29:44.219Z,23.25
2023-05-17T13:32:33.142Z,23.25
2023-05-17T13:35:22.024Z,23.27
2023-05-17T13:38:10.752Z,23.29
2023-05-17T13:41:00.800Z,23.26
2023-05-17T13:43:49.514Z,23.20
2023-05-17T13:46:38.229Z,23.12
2023-05-17T13:49:28.412Z,23.10
2023-05-17T13:52:18.650Z,23.14
2023-05-17T13:55:08.687Z,23.19
2023-05-17T13:57:59.997Z,23.26
2023-05-17T14:00:50.282Z,23.29
2023-05-17T14:03:39.040Z,23.26
2023-05-17T14:06:27.874Z,23.26
2023-05-17T14:09:22.044Z,23.30
2023-05-17T14:12:11.910Z,23.44
2023-05-17T14:15:01.993Z,23.47
2023-05-17T14:17:51.131Z,23.70
2023-05-17T14:20:42.733Z,23.91
2023-05-17T14:23:34.099Z,24.02
2023-05-17T14:26:23.464Z,23.92
2023-05-17T14:29:14.885Z,23.98
2023-05-17T14:32:05.553Z,24.23
2023-05-17T14:34:54.592Z,24.18
2023-05-17T14:37:43.611Z,24.19
2023-05-17T14:40:32.752Z,24.20
2023-05-17T14:43:21.509Z,24.19
2023-05-17T14:46:10.235Z,24.23
2023-05-17T14:49:03.225Z,24.34
2023-05-17T14:51:51.963Z,24.45
2023-05-17T14:54:41.315Z,24.40
2023-05-17T14:57:32.458Z,24.51
2023-05-17T15:00:22.545Z,24.43
2023-05-17T15:03:11.943Z,24.42
2023-05-17T15:06:05.097Z,24.48
2023-05-17T15:08:56.054Z,24.49
2023-05-17T15:11:44.838Z,24.50
2023-05-17T15:14:33.544Z,24.50
2023-05-17T15:17:23.030Z,24.68
2023-05-17T15:20:14.712Z,24.76
2023-05-17T15:23:08.623Z,24.84
2023-05-17T15:25:57.247Z,24.88
2023-05-17T15:28:49.452Z,24.93
2023-05-17T15:31:38.227Z,24.98
2023-05-17T15:34:29.097Z,25.01
2023-05-17T15:37:17.918Z,25.07
2023-05-17T15:40:11.053Z,25.05
2023-05-17T15:42:59.776Z,25.13
2023-05-17T15:45:48.627Z,25.13
2023-05-17T15:48:37.678Z,25.20
2023-05-17T15:51:29.658Z,25.26
2023-05-17T15:54:18.342Z,25.33
2023-05-17T15:57:11.466Z,25.37
2023-05-17T16:00:00.244Z,25.41
2023-05-17T16:02:52.822Z,25.43
2023-05-17T16:05:41.996Z,25.45
2023-05-17T16:08:30.986Z,25.50
2023-05-17T16:11:19.555Z,25.53
2023-05-17T16:14:10.224Z,25.58
2023-05-17T16:16:59.371Z,25.62
2023-05-17T16:19:48.330Z,25.65
2023-05-17T16:22:37.275Z,25.66
2023-05-17T16:25:27.436Z,25.68
2023-05-17T16:28:19.488Z,25.70
2023-05-17T16:31:12.719Z,25.71
2023-05-17T16:34:01.610Z,25.74
2023-05-17T16:36:50.566Z,25.76
2023-05-17T16:39:41.833Z,25.77
2023-05-17T16:42:31.058Z,25.81
2023-05-17T16:45:19.764Z,25.80
2023-05-17T16:48:09.915Z,25.82
2023-05-17T16:50:59.552Z,25.82
2023-05-17T16:53:48.734Z,25.83
2023-05-17T16:56:37.563Z,25.84
2023-05-17T16:59:26.341Z,25.81
2023-05-17T17:02:15.249Z,25.83
2023-05-17T17:05:06.040Z,25.82
2023-05-17T17:07:54.702Z,25.75
2023-05-17T17:10:44.552Z,25.72
2023-05-17T17:13:33.161Z,25.62
2023-05-17T17:16:21.894Z,25.70
2023-05-17T17:19:10.794Z,25.76
2023-05-17T17:22:00.913Z,25.77
2023-05-17T17:24:49.525Z,25.78
2023-05-17T17:27:38.248Z,25.84
2023-05-17T17:30:27.030Z,25.87
2023-05-17T17:33:15.971Z,25.86
2023-05-17T17:36:05.027Z,25.71
2023-05-17T17:38:56.469Z,25.73
2023-05-17T17:41:45.188Z,25.78
2023-05-17T17:44:38.451Z,25.83
2023-05-17T17:47:27.290Z,25.88
2023-05-17T17:50:17.241Z,26.08
2023-05-17T17:53:06.045Z,26.08
2023-05-17T17:55:56.144Z,26.10
2023-05-17T17:58:45.194Z,26.18
2023-05-17T18:01:35.196Z,26.19
2023-05-17T18:04:23.923Z,26.30
2023-05-17T18:07:15.457Z,26.34
2023-05-17T18:10:04.216Z,26.43
2023-05-17T18:12:55.257Z,26.54
2023-05-17T18:15:45.046Z,26.61
2023-05-17T18:18:33.823Z,26.63
2023-05-17T18:21:22.681Z,26.70
2023-05-17T18:24:12.516Z,26.77
2023-05-17T18:27:01.322Z,26.81
2023-05-17T18:29:51.529Z,26.83
2023-05-17T18:32:40.323Z,26.83
2023-05-17T18:35:30.260Z,26.80
2023-05-17T18:38:19.079Z,26.75
2023-05-17T18:41:07.925Z,26.72
2023-05-17T18:44:02.095Z,26.70
2023-05-17T18:46:54.325Z,26.69
2023-05-17T18:49:46.809Z,26.64
2023-05-17T18:52:35.560Z,26.65
2023-05-17T18:55:24.497Z,26.66
2023-05-17T18:58:13.550Z,26.62
2023-05-17T19:01:02.897Z,26.63
2023-05-17T19:03:55.268Z,26.66
2023-05-17T19:06:43.975Z,26.57
2023-05-17T19:09:34.438Z,26.56
2023-05-17T19:12:23.207Z,26.58
2023-05-17T19:15:12.284Z,26.63
2023-05-17T19:18:01.002Z,26.62
2023-05-17T19:20:51.233Z,26.56
2023-05-17T19:23:39.893Z,26.59
2023-05-17T19:26:29.097Z,26.57
2023-05-17T19:29:18.105Z,26.54
2023-05-17T19:32:08.349Z,26.48
2023-05-17T19:34:57.299Z,26.44
2023-05-17T19:37:47.664Z,26.41
2023-05-17T19:40:36.950Z,26.33
2023-05-17T19:43:25.673Z,26.26
2023-05-17T19:46:14.425Z,26.27
2023-05-17T19:49:04.575Z,26.15
2023-05-17T19:51:54.138Z,26.07
2023-05-17T19:54:44.267Z,26.00
2023-05-17T19:57:33.038Z,26.00
2023-05-17T20:00:21.874Z,26.01
2023-05-17T20:03:10.845Z,25.96
2023-05-17T20:05:59.605Z,25.98
2023-05-17T20:08:48.234Z,25.98
2023-05-17T20:11:38.317Z,25.99
2023-05-17T20:14:28.576Z,25.97
2023-05-17T20:17:17.488Z,25.91
2023-05-17T20:20:07.491Z,26.02
2023-05-17T20:22:56.305Z,25.94
2023-05-17T20:25:47.554Z,25.93
2023-05-17T20:28:37.699Z,25.88
2023-05-17T20:31:26.462Z,25.86
2023-05-17T20:34:15.439Z,25.84
2023-05-17T20:37:04.198Z,25.92
2023-05-17T20:39:53.623Z,25.86
2023-05-17T20:42:42.833Z,25.89
2023-05-17T20:45:33.782Z,25.84
2023-05-17T20:48:22.661Z,25.82
2023-05-17T20:51:12.047Z,25.86
2023-05-17T20:54:00.955Z,25.80
2023-05-17T20:56:49.802Z,25.93
2023-05-17T20:59:39.298Z,25.91
2023-05-17T21:02:29.520Z,25.77
2023-05-17T21:05:18.308Z,25.76
2023-05-17T21:08:08.350Z,25.80
2023-05-17T21:10:57.564Z,25.80
2023-05-17T21:13:46.324Z,25.77
2023-05-17T21:16:35.641Z,25.80
2023-05-17T21:19:25.907Z,25.77
2023-05-17T21:22:14.702Z,25.76
2023-05-17T21:25:03.462Z,25.83
2023-05-17T21:27:52.261Z,25.80
2023-05-17T21:30:41.023Z,25.87
2023-05-17T21:33:30.030Z,25.81
2023-05-17T21:36:20.105Z,25.82
2023-05-17T21:39:08.763Z,25.86
2023-05-17T21:41:57.393Z,25.92
2023-05-17T21:44:46.059Z,25.86
2023-05-17T21:47:35.919Z,25.83
2023-05-17T21:50:24.738Z,25.73
2023-05-17T21:53:15.102Z,25.75
2023-05-17T21:56:03.806Z,25.61
2023-05-17T21:58:53.250Z,25.60
2023-05-17T22:01:43.468Z,25.48
2023-05-17T22:04:32.405Z,25.43
2023-05-17T22:07:21.087Z,25.26
2023-05-17T22:10:12.699Z,25.22
2023-05-17T22:13:02.740Z,25.24
2023-05-17T22:15:51.490Z,25.26
2023-05-17T22:18:40.305Z,25.23
2023-05-17T22:21:29.237Z,25.19
2023-05-17T22:24:18.447Z,25.17
2023-05-17T22:27:08.613Z,25.18
2023-05-17T22:29:57.242Z,25.15
2023-05-17T22:32:45.937Z,25.11
2023-05-17T22:35:34.650Z,25.12
2023-05-17T22:38:24.288Z,25.15
2023-05-17T22:41:13.805Z,25.16
2023-05-17T22:44:04.004Z,25.15
2023-05-17T22:46:52.766Z,25.13
2023-05-17T22:49:41.960Z,25.26
2023-05-17T22:52:30.628Z,25.21
2023-05-17T22:55:19.869Z,25.20
2023-05-17T22:58:08.518Z,25.25
2023-05-17T23:00:58.705Z,25.28
2023-05-17T23:03:47.454Z,25.29
2023-05-17T23:06:36.338Z,25.27
2023-05-17T23:09:26.141Z,25.28
2023-05-17T23:12:17.358Z,25.34
2023-05-17T23:15:09.468Z,25.30
2023-05-17T23:17:59.923Z,25.35
2023-05-17T23:20:49.877Z,25.31
2023-05-17T23:23:40.642Z,25.26
2023-05-17T23:26:29.455Z,25.32
2023-05-17T23:29:18.906Z,25.34
2023-05-17T23:32:07.882Z,25.38
2023-05-17T23:35:03.450Z,25.45
2023-05-17T23:37:52.171Z,25.37
2023-05-17T23:40:41.779Z,25.25
2023-05-17T23:43:30.417Z,25.25
2023-05-17T23:46:19.720Z,25.25
2023-05-17T23:49:08.627Z,25.31
2023-05-17T23:51:58.681Z,25.30
2023-05-17T23:54:48.803Z,25.31
2023-05-17T23:57:37.846Z,25.41
